sensor_id;sensor_type;location;lat;lon;timestamp;P1;durP1;ratioP1;P2;durP2;ratioP2
45764;SDS011;31474;45.332;10.230;2023-04-15T00:00:41;4.40;;;2.88;;
45764;SDS011;31474;45.332;10.230;2023-04-15T00:03:07;4.88;;;2.53;;
45764;SDS011;31474;45.332;10.230;2023-04-15T00:05:32;2.75;;;2.33;;
45764;SDS011;31474;45.332;10.230;2023-04-15T00:07:58;3.47;;;2.45;;
45764;SDS011;31474;45.332;10.230;2023-04-15T00:10:25;3.90;;;2.75;;
45764;SDS011;31474;45.332;10.230;2023-04-15T00:12:51;2.80;;;2.55;;
45764;SDS011;31474;45.332;10.230;2023-04-15T00:15:17;3.13;;;2.47;;
45764;SDS011;31474;45.332;10.230;2023-04-15T00:17:43;4.50;;;3.30;;
45764;SDS011;31474;45.332;10.230;2023-04-15T00:20:09;6.53;;;2.53;;
45764;SDS011;31474;45.332;10.230;2023-04-15T00:22:35;4.40;;;3.10;;
45764;SDS011;31474;45.332;10.230;2023-04-15T00:25:00;3.92;;;2.58;;
45764;SDS011;31474;45.332;10.230;2023-04-15T00:27:27;2.92;;;2.35;;
45764;SDS011;31474;45.332;10.230;2023-04-15T00:29:52;2.70;;;2.30;;
45764;SDS011;31474;45.332;10.230;2023-04-15T00:32:18;3.25;;;2.63;;
45764;SDS011;31474;45.332;10.230;2023-04-15T00:34:44;3.50;;;2.50;;
45764;SDS011;31474;45.332;10.230;2023-04-15T00:37:10;3.83;;;2.67;;
45764;SDS011;31474;45.332;10.230;2023-04-15T00:39:36;3.00;;;2.58;;
45764;SDS011;31474;45.332;10.230;2023-04-15T00:42:03;3.60;;;2.63;;
45764;SDS011;31474;45.332;10.230;2023-04-15T00:44:29;3.88;;;2.78;;
45764;SDS011;31474;45.332;10.230;2023-04-15T00:46:55;2.92;;;2.50;;
45764;SDS011;31474;45.332;10.230;2023-04-15T00:49:21;4.18;;;2.88;;
45764;SDS011;31474;45.332;10.230;2023-04-15T00:51:47;4.05;;;2.92;;
45764;SDS011;31474;45.332;10.230;2023-04-15T00:54:13;3.80;;;2.65;;
45764;SDS011;31474;45.332;10.230;2023-04-15T00:56:40;4.18;;;2.80;;
45764;SDS011;31474;45.332;10.230;2023-04-15T00:59:06;3.38;;;2.55;;
45764;SDS011;31474;45.332;10.230;2023-04-15T01:01:34;5.15;;;2.70;;
45764;SDS011;31474;45.332;10.230;2023-04-15T01:04:00;3.88;;;2.50;;
45764;SDS011;31474;45.332;10.230;2023-04-15T01:06:27;3.63;;;2.65;;
45764;SDS011;31474;45.332;10.230;2023-04-15T01:08:53;2.90;;;2.40;;
45764;SDS011;31474;45.332;10.230;2023-04-15T01:11:19;3.70;;;2.92;;
45764;SDS011;31474;45.332;10.230;2023-04-15T01:13:46;4.78;;;2.80;;
45764;SDS011;31474;45.332;10.230;2023-04-15T01:16:12;4.72;;;2.90;;
45764;SDS011;31474;45.332;10.230;2023-04-15T01:18:38;3.63;;;2.58;;
45764;SDS011;31474;45.332;10.230;2023-04-15T01:21:05;4.22;;;2.38;;
45764;SDS011;31474;45.332;10.230;2023-04-15T01:23:32;2.95;;;2.20;;
45764;SDS011;31474;45.332;10.230;2023-04-15T01:26:00;3.47;;;2.55;;
45764;SDS011;31474;45.332;10.230;2023-04-15T01:28:27;3.33;;;2.33;;
45764;SDS011;31474;45.332;10.230;2023-04-15T01:33:32;3.97;;;2.35;;
45764;SDS011;31474;45.332;10.230;2023-04-15T01:35:57;4.88;;;2.35;;
45764;SDS011;31474;45.332;10.230;2023-04-15T01:38:25;3.08;;;2.28;;
45764;SDS011;31474;45.332;10.230;2023-04-15T01:40:51;2.75;;;2.15;;
45764;SDS011;31474;45.332;10.230;2023-04-15T01:43:17;3.55;;;2.50;;
45764;SDS011;31474;45.332;10.230;2023-04-15T01:45:43;3.20;;;2.40;;
45764;SDS011;31474;45.332;10.230;2023-04-15T01:48:09;3.60;;;2.97;;
45764;SDS011;31474;45.332;10.230;2023-04-15T01:50:36;3.08;;;2.38;;
45764;SDS011;31474;45.332;10.230;2023-04-15T01:53:02;5.88;;;3.08;;
45764;SDS011;31474;45.332;10.230;2023-04-15T01:55:28;4.40;;;2.97;;
45764;SDS011;31474;45.332;10.230;2023-04-15T01:57:54;4.35;;;3.00;;
45764;SDS011;31474;45.332;10.230;2023-04-15T02:00:20;6.10;;;2.65;;
45764;SDS011;31474;45.332;10.230;2023-04-15T02:02:47;4.35;;;3.03;;
45764;SDS011;31474;45.332;10.230;2023-04-15T02:05:12;3.55;;;2.97;;
45764;SDS011;31474;45.332;10.230;2023-04-15T02:07:38;4.40;;;2.88;;
45764;SDS011;31474;45.332;10.230;2023-04-15T02:10:04;3.40;;;2.83;;
45764;SDS011;31474;45.332;10.230;2023-04-15T02:12:30;5.40;;;2.88;;
45764;SDS011;31474;45.332;10.230;2023-04-15T02:14:56;4.10;;;3.08;;
45764;SDS011;31474;45.332;10.230;2023-04-15T02:17:21;4.00;;;2.90;;
45764;SDS011;31474;45.332;10.230;2023-04-15T02:19:47;3.90;;;2.67;;
45764;SDS011;31474;45.332;10.230;2023-04-15T02:22:13;3.08;;;2.58;;
45764;SDS011;31474;45.332;10.230;2023-04-15T02:24:42;3.72;;;2.60;;
45764;SDS011;31474;45.332;10.230;2023-04-15T02:27:08;4.15;;;2.95;;
45764;SDS011;31474;45.332;10.230;2023-04-15T02:29:34;4.93;;;2.92;;
45764;SDS011;31474;45.332;10.230;2023-04-15T02:31:59;4.13;;;2.90;;
45764;SDS011;31474;45.332;10.230;2023-04-15T02:34:25;3.63;;;3.05;;
45764;SDS011;31474;45.332;10.230;2023-04-15T02:36:51;4.47;;;2.80;;
45764;SDS011;31474;45.332;10.230;2023-04-15T02:39:21;3.28;;;2.80;;
45764;SDS011;31474;45.332;10.230;2023-04-15T02:41:47;4.22;;;2.70;;
45764;SDS011;31474;45.332;10.230;2023-04-15T02:44:16;3.22;;;2.55;;
45764;SDS011;31474;45.332;10.230;2023-04-15T02:46:44;3.13;;;2.60;;
45764;SDS011;31474;45.332;10.230;2023-04-15T02:49:16;3.13;;;2.35;;
45764;SDS011;31474;45.332;10.230;2023-04-15T02:51:42;4.22;;;2.40;;
45764;SDS011;31474;45.332;10.230;2023-04-15T02:54:11;3.20;;;2.28;;
45764;SDS011;31474;45.332;10.230;2023-04-15T02:56:37;2.90;;;2.38;;
45764;SDS011;31474;45.332;10.230;2023-04-15T02:59:02;3.13;;;2.47;;
45764;SDS011;31474;45.332;10.230;2023-04-15T03:01:28;2.88;;;2.50;;
45764;SDS011;31474;45.332;10.230;2023-04-15T03:03:54;3.80;;;2.78;;
45764;SDS011;31474;45.332;10.230;2023-04-15T03:06:20;4.03;;;2.83;;
45764;SDS011;31474;45.332;10.230;2023-04-15T03:08:45;5.15;;;2.83;;
45764;SDS011;31474;45.332;10.230;2023-04-15T03:11:11;4.90;;;2.33;;
45764;SDS011;31474;45.332;10.230;2023-04-15T03:13:39;4.60;;;2.50;;
45764;SDS011;31474;45.332;10.230;2023-04-15T03:16:05;2.97;;;2.28;;
45764;SDS011;31474;45.332;10.230;2023-04-15T03:18:31;5.38;;;3.47;;
45764;SDS011;31474;45.332;10.230;2023-04-15T03:20:57;3.95;;;2.90;;
45764;SDS011;31474;45.332;10.230;2023-04-15T03:23:23;6.00;;;2.80;;
45764;SDS011;31474;45.332;10.230;2023-04-15T03:25:49;5.32;;;2.90;;
45764;SDS011;31474;45.332;10.230;2023-04-15T03:28:15;7.05;;;3.03;;
45764;SDS011;31474;45.332;10.230;2023-04-15T03:30:41;4.75;;;3.30;;
45764;SDS011;31474;45.332;10.230;2023-04-15T03:33:06;3.92;;;2.75;;
45764;SDS011;31474;45.332;10.230;2023-04-15T03:35:33;4.20;;;3.42;;
45764;SDS011;31474;45.332;10.230;2023-04-15T03:37:59;4.88;;;3.30;;
45764;SDS011;31474;45.332;10.230;2023-04-15T03:40:25;4.45;;;3.70;;
45764;SDS011;31474;45.332;10.230;2023-04-15T03:42:51;4.53;;;3.22;;
45764;SDS011;31474;45.332;10.230;2023-04-15T03:45:16;3.42;;;3.13;;
45764;SDS011;31474;45.332;10.230;2023-04-15T03:47:42;4.03;;;3.60;;
45764;SDS011;31474;45.332;10.230;2023-04-15T03:50:08;4.20;;;3.35;;
45764;SDS011;31474;45.332;10.230;2023-04-15T03:52:33;5.97;;;3.03;;
45764;SDS011;31474;45.332;10.230;2023-04-15T03:54:59;5.13;;;3.75;;
45764;SDS011;31474;45.332;10.230;2023-04-15T03:57:25;3.97;;;3.38;;
45764;SDS011;31474;45.332;10.230;2023-04-15T03:59:51;4.35;;;3.30;;
45764;SDS011;31474;45.332;10.230;2023-04-15T04:02:17;4.18;;;3.53;;
45764;SDS011;31474;45.332;10.230;2023-04-15T04:04:42;5.63;;;3.80;;
45764;SDS011;31474;45.332;10.230;2023-04-15T04:07:13;5.30;;;3.70;;
45764;SDS011;31474;45.332;10.230;2023-04-15T04:09:42;4.60;;;4.10;;
45764;SDS011;31474;45.332;10.230;2023-04-15T04:12:08;4.88;;;4.38;;
45764;SDS011;31474;45.332;10.230;2023-04-15T04:14:33;6.88;;;4.50;;
45764;SDS011;31474;45.332;10.230;2023-04-15T04:16:59;6.88;;;4.95;;
45764;SDS011;31474;45.332;10.230;2023-04-15T04:19:25;4.90;;;3.85;;
45764;SDS011;31474;45.332;10.230;2023-04-15T04:21:51;5.97;;;4.57;;
45764;SDS011;31474;45.332;10.230;2023-04-15T04:24:17;7.35;;;4.25;;
45764;SDS011;31474;45.332;10.230;2023-04-15T04:26:42;6.50;;;4.43;;
45764;SDS011;31474;45.332;10.230;2023-04-15T04:29:08;6.40;;;4.32;;
45764;SDS011;31474;45.332;10.230;2023-04-15T04:31:34;8.50;;;4.78;;
45764;SDS011;31474;45.332;10.230;2023-04-15T04:33:59;6.60;;;5.13;;
45764;SDS011;31474;45.332;10.230;2023-04-15T04:36:25;4.68;;;4.28;;
45764;SDS011;31474;45.332;10.230;2023-04-15T04:38:50;7.00;;;4.82;;
45764;SDS011;31474;45.332;10.230;2023-04-15T04:41:16;7.20;;;4.45;;
45764;SDS011;31474;45.332;10.230;2023-04-15T04:43:42;6.25;;;4.63;;
45764;SDS011;31474;45.332;10.230;2023-04-15T04:46:08;6.03;;;5.38;;
45764;SDS011;31474;45.332;10.230;2023-04-15T04:48:34;9.43;;;6.32;;
45764;SDS011;31474;45.332;10.230;2023-04-15T04:50:59;7.40;;;6.63;;
45764;SDS011;31474;45.332;10.230;2023-04-15T04:53:26;8.05;;;6.97;;
45764;SDS011;31474;45.332;10.230;2023-04-15T04:55:52;8.88;;;6.53;;
45764;SDS011;31474;45.332;10.230;2023-04-15T04:58:17;9.15;;;5.53;;
45764;SDS011;31474;45.332;10.230;2023-04-15T05:00:43;10.18;;;5.88;;
45764;SDS011;31474;45.332;10.230;2023-04-15T05:03:09;6.38;;;5.55;;
45764;SDS011;31474;45.332;10.230;2023-04-15T05:05:34;7.32;;;5.50;;
45764;SDS011;31474;45.332;10.230;2023-04-15T05:08:03;6.53;;;5.30;;
45764;SDS011;31474;45.332;10.230;2023-04-15T05:10:29;5.75;;;5.13;;
45764;SDS011;31474;45.332;10.230;2023-04-15T05:12:55;6.82;;;4.95;;
45764;SDS011;31474;45.332;10.230;2023-04-15T05:15:21;6.78;;;5.18;;
45764;SDS011;31474;45.332;10.230;2023-04-15T05:17:47;8.27;;;5.30;;
45764;SDS011;31474;45.332;10.230;2023-04-15T05:20:12;9.88;;;5.53;;
45764;SDS011;31474;45.332;10.230;2023-04-15T05:22:38;6.65;;;4.97;;
45764;SDS011;31474;45.332;10.230;2023-04-15T05:25:04;5.35;;;4.63;;
45764;SDS011;31474;45.332;10.230;2023-04-15T05:27:30;6.35;;;4.82;;
45764;SDS011;31474;45.332;10.230;2023-04-15T05:29:55;6.38;;;4.93;;
45764;SDS011;31474;45.332;10.230;2023-04-15T05:32:21;7.07;;;5.53;;
45764;SDS011;31474;45.332;10.230;2023-04-15T05:34:47;6.43;;;5.75;;
45764;SDS011;31474;45.332;10.230;2023-04-15T05:37:12;7.35;;;5.43;;
45764;SDS011;31474;45.332;10.230;2023-04-15T05:39:38;8.90;;;5.30;;
45764;SDS011;31474;45.332;10.230;2023-04-15T05:42:04;8.75;;;5.28;;
45764;SDS011;31474;45.332;10.230;2023-04-15T05:44:30;7.70;;;5.78;;
45764;SDS011;31474;45.332;10.230;2023-04-15T05:46:56;9.25;;;5.15;;
45764;SDS011;31474;45.332;10.230;2023-04-15T05:49:22;7.00;;;5.40;;
45764;SDS011;31474;45.332;10.230;2023-04-15T05:51:47;8.48;;;4.97;;
45764;SDS011;31474;45.332;10.230;2023-04-15T05:54:13;7.90;;;4.75;;
45764;SDS011;31474;45.332;10.230;2023-04-15T05:56:39;10.98;;;6.53;;
45764;SDS011;31474;45.332;10.230;2023-04-15T05:59:05;8.75;;;4.90;;
45764;SDS011;31474;45.332;10.230;2023-04-15T06:01:32;6.55;;;4.88;;
45764;SDS011;31474;45.332;10.230;2023-04-15T06:03:58;6.88;;;4.80;;
45764;SDS011;31474;45.332;10.230;2023-04-15T06:06:24;6.72;;;4.65;;
45764;SDS011;31474;45.332;10.230;2023-04-15T06:08:51;5.85;;;4.50;;
45764;SDS011;31474;45.332;10.230;2023-04-15T06:11:17;7.38;;;5.50;;
45764;SDS011;31474;45.332;10.230;2023-04-15T06:13:45;6.85;;;4.45;;
45764;SDS011;31474;45.332;10.230;2023-04-15T06:16:10;7.55;;;4.93;;
45764;SDS011;31474;45.332;10.230;2023-04-15T06:18:36;7.63;;;5.13;;
45764;SDS011;31474;45.332;10.230;2023-04-15T06:21:02;5.15;;;4.65;;
45764;SDS011;31474;45.332;10.230;2023-04-15T06:23:28;5.95;;;4.72;;
45764;SDS011;31474;45.332;10.230;2023-04-15T06:25:54;6.60;;;4.35;;
45764;SDS011;31474;45.332;10.230;2023-04-15T06:28:20;5.53;;;4.40;;
45764;SDS011;31474;45.332;10.230;2023-04-15T06:30:45;5.10;;;4.05;;
45764;SDS011;31474;45.332;10.230;2023-04-15T06:33:11;12.55;;;4.07;;
45764;SDS011;31474;45.332;10.230;2023-04-15T06:35:37;6.85;;;4.28;;
45764;SDS011;31474;45.332;10.230;2023-04-15T06:38:03;4.45;;;3.80;;
45764;SDS011;31474;45.332;10.230;2023-04-15T06:40:29;5.22;;;3.65;;
45764;SDS011;31474;45.332;10.230;2023-04-15T06:42:55;5.85;;;3.70;;
45764;SDS011;31474;45.332;10.230;2023-04-15T06:45:21;6.10;;;4.07;;
45764;SDS011;31474;45.332;10.230;2023-04-15T06:47:46;5.43;;;3.20;;
45764;SDS011;31474;45.332;10.230;2023-04-15T06:50:12;5.75;;;3.95;;
45764;SDS011;31474;45.332;10.230;2023-04-15T06:52:38;4.47;;;3.50;;
45764;SDS011;31474;45.332;10.230;2023-04-15T06:55:05;4.50;;;3.50;;
45764;SDS011;31474;45.332;10.230;2023-04-15T06:57:31;4.43;;;3.65;;
45764;SDS011;31474;45.332;10.230;2023-04-15T06:59:56;4.97;;;3.33;;
45764;SDS011;31474;45.332;10.230;2023-04-15T07:02:22;5.70;;;3.45;;
45764;SDS011;31474;45.332;10.230;2023-04-15T07:04:48;5.93;;;3.22;;
45764;SDS011;31474;45.332;10.230;2023-04-15T07:07:13;5.13;;;3.28;;
45764;SDS011;31474;45.332;10.230;2023-04-15T07:09:40;5.38;;;3.38;;
45764;SDS011;31474;45.332;10.230;2023-04-15T07:12:06;4.68;;;3.30;;
45764;SDS011;31474;45.332;10.230;2023-04-15T07:14:32;4.68;;;3.38;;
45764;SDS011;31474;45.332;10.230;2023-04-15T07:16:57;3.80;;;3.13;;
45764;SDS011;31474;45.332;10.230;2023-04-15T07:19:23;4.53;;;3.13;;
45764;SDS011;31474;45.332;10.230;2023-04-15T07:21:49;3.88;;;3.47;;
45764;SDS011;31474;45.332;10.230;2023-04-15T07:24:15;4.95;;;2.78;;
45764;SDS011;31474;45.332;10.230;2023-04-15T07:26:42;5.57;;;3.40;;
45764;SDS011;31474;45.332;10.230;2023-04-15T07:29:08;3.47;;;3.17;;
45764;SDS011;31474;45.332;10.230;2023-04-15T07:31:34;3.15;;;2.58;;
45764;SDS011;31474;45.332;10.230;2023-04-15T07:34:01;4.40;;;3.35;;
45764;SDS011;31474;45.332;10.230;2023-04-15T07:36:27;4.78;;;2.97;;
45764;SDS011;31474;45.332;10.230;2023-04-15T07:38:53;4.20;;;2.92;;
45764;SDS011;31474;45.332;10.230;2023-04-15T07:41:19;5.57;;;4.20;;
45764;SDS011;31474;45.332;10.230;2023-04-15T07:43:45;4.28;;;2.92;;
45764;SDS011;31474;45.332;10.230;2023-04-15T07:46:12;7.28;;;2.60;;
45764;SDS011;31474;45.332;10.230;2023-04-15T07:48:38;4.30;;;3.17;;
45764;SDS011;31474;45.332;10.230;2023-04-15T07:51:04;4.07;;;3.13;;
45764;SDS011;31474;45.332;10.230;2023-04-15T07:53:30;4.40;;;3.33;;
45764;SDS011;31474;45.332;10.230;2023-04-15T07:55:57;3.40;;;2.80;;
45764;SDS011;31474;45.332;10.230;2023-04-15T07:58:23;3.78;;;2.45;;
45764;SDS011;31474;45.332;10.230;2023-04-15T08:00:48;4.57;;;3.17;;
45764;SDS011;31474;45.332;10.230;2023-04-15T08:03:14;3.75;;;2.45;;
45764;SDS011;31474;45.332;10.230;2023-04-15T08:05:40;3.78;;;3.17;;
45764;SDS011;31474;45.332;10.230;2023-04-15T08:08:06;5.53;;;3.00;;
45764;SDS011;31474;45.332;10.230;2023-04-15T08:10:32;4.15;;;3.03;;
45764;SDS011;31474;45.332;10.230;2023-04-15T08:12:57;3.88;;;2.58;;
45764;SDS011;31474;45.332;10.230;2023-04-15T08:15:23;3.58;;;2.65;;
45764;SDS011;31474;45.332;10.230;2023-04-15T08:17:49;5.80;;;2.78;;
45764;SDS011;31474;45.332;10.230;2023-04-15T08:20:15;4.38;;;2.97;;
45764;SDS011;31474;45.332;10.230;2023-04-15T08:22:41;4.47;;;2.55;;
45764;SDS011;31474;45.332;10.230;2023-04-15T08:25:06;3.22;;;2.60;;
45764;SDS011;31474;45.332;10.230;2023-04-15T08:27:33;4.57;;;2.95;;
45764;SDS011;31474;45.332;10.230;2023-04-15T08:29:59;2.88;;;2.45;;
45764;SDS011;31474;45.332;10.230;2023-04-15T08:32:25;3.10;;;2.70;;
45764;SDS011;31474;45.332;10.230;2023-04-15T08:34:51;4.18;;;2.92;;
45764;SDS011;31474;45.332;10.230;2023-04-15T08:37:17;3.60;;;2.88;;
45764;SDS011;31474;45.332;10.230;2023-04-15T08:39:43;4.13;;;2.75;;
45764;SDS011;31474;45.332;10.230;2023-04-15T08:42:15;4.07;;;3.50;;
45764;SDS011;31474;45.332;10.230;2023-04-15T08:44:42;3.78;;;2.70;;
45764;SDS011;31474;45.332;10.230;2023-04-15T08:47:08;3.47;;;2.90;;
45764;SDS011;31474;45.332;10.230;2023-04-15T08:49:38;3.65;;;2.78;;
45764;SDS011;31474;45.332;10.230;2023-04-15T08:52:05;4.03;;;3.53;;
45764;SDS011;31474;45.332;10.230;2023-04-15T08:54:32;3.22;;;2.63;;
45764;SDS011;31474;45.332;10.230;2023-04-15T08:56:58;5.55;;;2.90;;
45764;SDS011;31474;45.332;10.230;2023-04-15T08:59:25;3.60;;;2.35;;
45764;SDS011;31474;45.332;10.230;2023-04-15T09:01:51;3.50;;;2.58;;
45764;SDS011;31474;45.332;10.230;2023-04-15T09:04:17;5.03;;;2.75;;
45764;SDS011;31474;45.332;10.230;2023-04-15T09:06:43;3.47;;;2.70;;
45764;SDS011;31474;45.332;10.230;2023-04-15T09:09:09;3.55;;;2.67;;
45764;SDS011;31474;45.332;10.230;2023-04-15T09:11:37;3.72;;;2.30;;
45764;SDS011;31474;45.332;10.230;2023-04-15T09:14:02;5.10;;;2.97;;
45764;SDS011;31474;45.332;10.230;2023-04-15T09:16:28;4.53;;;2.78;;
45764;SDS011;31474;45.332;10.230;2023-04-15T09:18:54;3.35;;;2.70;;
45764;SDS011;31474;45.332;10.230;2023-04-15T09:21:20;5.45;;;2.85;;
45764;SDS011;31474;45.332;10.230;2023-04-15T09:23:54;3.38;;;3.00;;
45764;SDS011;31474;45.332;10.230;2023-04-15T09:29:02;5.15;;;3.20;;
45764;SDS011;31474;45.332;10.230;2023-04-15T09:31:32;5.78;;;3.25;;
45764;SDS011;31474;45.332;10.230;2023-04-15T09:33:57;3.88;;;3.10;;
45764;SDS011;31474;45.332;10.230;2023-04-15T09:36:23;5.07;;;3.55;;
45764;SDS011;31474;45.332;10.230;2023-04-15T09:38:53;4.00;;;2.92;;
45764;SDS011;31474;45.332;10.230;2023-04-15T09:43:49;4.07;;;3.03;;
45764;SDS011;31474;45.332;10.230;2023-04-15T09:46:15;4.32;;;2.97;;
45764;SDS011;31474;45.332;10.230;2023-04-15T09:48:40;3.35;;;2.78;;
45764;SDS011;31474;45.332;10.230;2023-04-15T09:51:06;4.10;;;2.95;;
45764;SDS011;31474;45.332;10.230;2023-04-15T09:53:33;3.47;;;2.80;;
45764;SDS011;31474;45.332;10.230;2023-04-15T09:56:00;4.15;;;3.67;;
45764;SDS011;31474;45.332;10.230;2023-04-15T09:58:27;3.33;;;2.88;;
45764;SDS011;31474;45.332;10.230;2023-04-15T10:00:55;3.63;;;3.03;;
45764;SDS011;31474;45.332;10.230;2023-04-15T10:03:23;3.30;;;2.88;;
45764;SDS011;31474;45.332;10.230;2023-04-15T10:05:51;4.53;;;3.53;;
45764;SDS011;31474;45.332;10.230;2023-04-15T10:08:19;5.15;;;3.33;;
45764;SDS011;31474;45.332;10.230;2023-04-15T10:10:47;4.60;;;3.38;;
45764;SDS011;31474;45.332;10.230;2023-04-15T10:13:13;3.83;;;3.33;;
45764;SDS011;31474;45.332;10.230;2023-04-15T10:18:33;5.03;;;3.80;;
45764;SDS011;31474;45.332;10.230;2023-04-15T10:21:01;5.90;;;4.00;;
45764;SDS011;31474;45.332;10.230;2023-04-15T10:23:29;5.13;;;3.40;;
45764;SDS011;31474;45.332;10.230;2023-04-15T10:25:56;3.72;;;3.33;;
45764;SDS011;31474;45.332;10.230;2023-04-15T10:28:23;4.35;;;3.38;;
45764;SDS011;31474;45.332;10.230;2023-04-15T10:30:51;3.60;;;3.30;;
45764;SDS011;31474;45.332;10.230;2023-04-15T10:33:17;4.38;;;3.97;;
45764;SDS011;31474;45.332;10.230;2023-04-15T10:35:47;4.03;;;3.47;;
45764;SDS011;31474;45.332;10.230;2023-04-15T10:38:35;5.70;;;3.95;;
45764;SDS011;31474;45.332;10.230;2023-04-15T10:43:48;4.45;;;3.85;;
45764;SDS011;31474;45.332;10.230;2023-04-15T10:46:39;4.95;;;3.67;;
45764;SDS011;31474;45.332;10.230;2023-04-15T10:49:09;5.25;;;3.85;;
45764;SDS011;31474;45.332;10.230;2023-04-15T10:51:39;4.50;;;3.65;;
45764;SDS011;31474;45.332;10.230;2023-04-15T10:54:29;6.57;;;4.63;;
45764;SDS011;31474;45.332;10.230;2023-04-15T10:57:06;5.40;;;3.30;;
45764;SDS011;31474;45.332;10.230;2023-04-15T10:59:35;3.45;;;3.03;;
45764;SDS011;31474;45.332;10.230;2023-04-15T11:02:03;5.40;;;4.20;;
45764;SDS011;31474;45.332;10.230;2023-04-15T11:07:37;4.47;;;3.30;;
45764;SDS011;31474;45.332;10.230;2023-04-15T11:12:37;5.63;;;4.10;;
45764;SDS011;31474;45.332;10.230;2023-04-15T11:20:35;5.00;;;4.35;;
45764;SDS011;31474;45.332;10.230;2023-04-15T11:23:01;5.05;;;4.30;;
45764;SDS011;31474;45.332;10.230;2023-04-15T11:25:29;4.68;;;4.18;;
45764;SDS011;31474;45.332;10.230;2023-04-15T11:27:59;9.05;;;4.50;;
45764;SDS011;31474;45.332;10.230;2023-04-15T11:30:26;5.55;;;4.25;;
45764;SDS011;31474;45.332;10.230;2023-04-15T11:32:54;5.25;;;4.30;;
45764;SDS011;31474;45.332;10.230;2023-04-15T11:35:22;4.35;;;3.95;;
45764;SDS011;31474;45.332;10.230;2023-04-15T11:37:48;5.88;;;4.55;;
45764;SDS011;31474;45.332;10.230;2023-04-15T11:40:15;5.40;;;4.60;;
45764;SDS011;31474;45.332;10.230;2023-04-15T11:43:02;5.78;;;4.40;;
45764;SDS011;31474;45.332;10.230;2023-04-15T11:48:15;5.95;;;3.92;;
45764;SDS011;31474;45.332;10.230;2023-04-15T11:50:41;7.03;;;4.75;;
45764;SDS011;31474;45.332;10.230;2023-04-15T11:53:11;6.53;;;4.25;;
45764;SDS011;31474;45.332;10.230;2023-04-15T11:55:41;6.85;;;5.38;;
45764;SDS011;31474;45.332;10.230;2023-04-15T12:00:54;6.85;;;5.07;;
45764;SDS011;31474;45.332;10.230;2023-04-15T12:06:14;5.78;;;4.93;;
45764;SDS011;31474;45.332;10.230;2023-04-15T12:08:51;5.13;;;4.32;;
45764;SDS011;31474;45.332;10.230;2023-04-15T12:11:41;5.90;;;4.57;;
45764;SDS011;31474;45.332;10.230;2023-04-15T12:16:46;5.45;;;4.10;;
45764;SDS011;31474;45.332;10.230;2023-04-15T12:19:14;7.32;;;5.15;;
45764;SDS011;31474;45.332;10.230;2023-04-15T12:21:46;5.32;;;3.97;;
45764;SDS011;31474;45.332;10.230;2023-04-15T12:24:13;5.32;;;3.90;;
45764;SDS011;31474;45.332;10.230;2023-04-15T12:26:49;4.78;;;4.22;;
45764;SDS011;31474;45.332;10.230;2023-04-15T12:29:17;7.32;;;4.22;;
45764;SDS011;31474;45.332;10.230;2023-04-15T12:32:26;4.50;;;4.05;;
45764;SDS011;31474;45.332;10.230;2023-04-15T12:34:34;6.05;;;4.88;;
45764;SDS011;31474;45.332;10.230;2023-04-15T12:37:02;4.95;;;4.10;;
45764;SDS011;31474;45.332;10.230;2023-04-15T12:39:30;4.93;;;4.10;;
45764;SDS011;31474;45.332;10.230;2023-04-15T12:41:59;7.15;;;5.15;;
45764;SDS011;31474;45.332;10.230;2023-04-15T12:44:25;6.20;;;4.70;;
45764;SDS011;31474;45.332;10.230;2023-04-15T12:46:52;4.88;;;3.80;;
45764;SDS011;31474;45.332;10.230;2023-04-15T12:49:18;11.35;;;8.32;;
45764;SDS011;31474;45.332;10.230;2023-04-15T12:51:46;5.82;;;4.75;;
45764;SDS011;31474;45.332;10.230;2023-04-15T12:54:13;7.07;;;4.22;;
45764;SDS011;31474;45.332;10.230;2023-04-15T12:56:38;4.90;;;4.15;;
45764;SDS011;31474;45.332;10.230;2023-04-15T12:59:04;6.75;;;4.90;;
45764;SDS011;31474;45.332;10.230;2023-04-15T13:01:30;5.15;;;4.30;;
45764;SDS011;31474;45.332;10.230;2023-04-15T13:03:55;4.88;;;4.15;;
45764;SDS011;31474;45.332;10.230;2023-04-15T13:06:21;6.60;;;4.82;;
45764;SDS011;31474;45.332;10.230;2023-04-15T13:08:48;6.70;;;4.30;;
45764;SDS011;31474;45.332;10.230;2023-04-15T13:11:14;5.07;;;3.85;;
45764;SDS011;31474;45.332;10.230;2023-04-15T13:13:41;5.22;;;3.92;;
45764;SDS011;31474;45.332;10.230;2023-04-15T13:16:07;4.40;;;3.53;;
45764;SDS011;31474;45.332;10.230;2023-04-15T13:18:33;5.47;;;4.05;;
45764;SDS011;31474;45.332;10.230;2023-04-15T13:20:59;16.92;;;4.95;;
45764;SDS011;31474;45.332;10.230;2023-04-15T13:23:26;6.30;;;4.10;;
45764;SDS011;31474;45.332;10.230;2023-04-15T13:25:51;4.35;;;3.75;;
45764;SDS011;31474;45.332;10.230;2023-04-15T13:28:17;5.30;;;3.55;;
45764;SDS011;31474;45.332;10.230;2023-04-15T13:30:43;6.07;;;4.65;;
45764;SDS011;31474;45.332;10.230;2023-04-15T13:33:09;6.93;;;3.88;;
45764;SDS011;31474;45.332;10.230;2023-04-15T13:35:35;5.93;;;4.40;;
45764;SDS011;31474;45.332;10.230;2023-04-15T13:38:01;4.97;;;4.18;;
45764;SDS011;31474;45.332;10.230;2023-04-15T13:40:27;5.90;;;4.85;;
45764;SDS011;31474;45.332;10.230;2023-04-15T13:42:52;5.97;;;4.38;;
45764;SDS011;31474;45.332;10.230;2023-04-15T13:45:18;5.20;;;4.70;;
45764;SDS011;31474;45.332;10.230;2023-04-15T13:47:44;8.75;;;4.80;;
45764;SDS011;31474;45.332;10.230;2023-04-15T13:50:09;7.07;;;5.03;;
45764;SDS011;31474;45.332;10.230;2023-04-15T13:52:35;6.90;;;4.50;;
45764;SDS011;31474;45.332;10.230;2023-04-15T13:55:04;4.95;;;3.53;;
45764;SDS011;31474;45.332;10.230;2023-04-15T13:57:30;5.45;;;4.50;;
45764;SDS011;31474;45.332;10.230;2023-04-15T13:59:56;7.80;;;4.65;;
45764;SDS011;31474;45.332;10.230;2023-04-15T14:02:22;5.43;;;4.32;;
45764;SDS011;31474;45.332;10.230;2023-04-15T14:04:48;4.55;;;4.03;;
45764;SDS011;31474;45.332;10.230;2023-04-15T14:07:13;3.40;;;2.92;;
45764;SDS011;31474;45.332;10.230;2023-04-15T14:09:39;4.82;;;3.03;;
45764;SDS011;31474;45.332;10.230;2023-04-15T14:12:05;3.90;;;3.13;;
45764;SDS011;31474;45.332;10.230;2023-04-15T14:14:31;6.47;;;3.65;;
45764;SDS011;31474;45.332;10.230;2023-04-15T14:16:56;3.97;;;2.70;;
45764;SDS011;31474;45.332;10.230;2023-04-15T14:19:22;4.35;;;2.33;;
45764;SDS011;31474;45.332;10.230;2023-04-15T14:21:48;5.68;;;3.08;;
45764;SDS011;31474;45.332;10.230;2023-04-15T14:24:14;4.50;;;3.22;;
45764;SDS011;31474;45.332;10.230;2023-04-15T14:26:40;3.92;;;3.22;;
45764;SDS011;31474;45.332;10.230;2023-04-15T14:29:08;4.72;;;4.05;;
45764;SDS011;31474;45.332;10.230;2023-04-15T14:31:34;7.72;;;3.88;;
45764;SDS011;31474;45.332;10.230;2023-04-15T14:34:00;6.30;;;3.80;;
45764;SDS011;31474;45.332;10.230;2023-04-15T14:36:26;3.67;;;3.15;;
45764;SDS011;31474;45.332;10.230;2023-04-15T14:38:51;5.10;;;4.20;;
45764;SDS011;31474;45.332;10.230;2023-04-15T14:41:17;3.72;;;3.30;;
45764;SDS011;31474;45.332;10.230;2023-04-15T14:43:42;4.28;;;3.88;;
45764;SDS011;31474;45.332;10.230;2023-04-15T14:46:09;4.57;;;4.10;;
45764;SDS011;31474;45.332;10.230;2023-04-15T14:48:35;9.43;;;4.43;;
45764;SDS011;31474;45.332;10.230;2023-04-15T14:51:00;4.88;;;4.38;;
45764;SDS011;31474;45.332;10.230;2023-04-15T14:53:26;4.53;;;3.63;;
45764;SDS011;31474;45.332;10.230;2023-04-15T14:55:52;4.97;;;3.92;;
45764;SDS011;31474;45.332;10.230;2023-04-15T14:58:17;7.85;;;4.13;;
45764;SDS011;31474;45.332;10.230;2023-04-15T15:00:43;5.20;;;3.08;;
45764;SDS011;31474;45.332;10.230;2023-04-15T15:03:09;6.35;;;3.63;;
45764;SDS011;31474;45.332;10.230;2023-04-15T15:05:39;3.10;;;2.75;;